Webcam Flughafen St.Gallen-Altenrhein

Live-Bilder und Zeitraffer LSZR / ACH.

 

Live aus Altenrhein
LIVE
LSZR 132220Z AUTO 22003KT CAVOK 15/12 Q1024
Zeitraffer heute
2021-06-14 00:14:39
LSZR 132150Z AUTO 25002KT CAVOK 16/12 Q1024